メインページ
METAR-TAF:

METAR-TAF

空港 :

トルマチョーヴォ空港

ノヴォシビルスク, ロシア

緯度: 55-01N, 経度: 082-38E, 海抜: 111m

現時点の気象観測

当レポートは22分前の23:00(UTC)に作成
西の風 6kt
気温 8°C
湿度 100%
気圧 1018 hPa
視程10km以上
高度4400ftの千切れ雲あり, 積乱雲.

METAR: UNNT 242300Z 28003MPS 9999 BKN044CB 08/08 Q1018 R25/190065 R16/190065 NOSIG RMK QFE753/1005

時間: 06:22 (23:22 UTC)

予報

当レポートは3時間22分前の20:00(UTC)に作成
予報は24日の 21時(UTC)から 25日の 21時(UTC)まで有効
西/南西の風 6kt、最大16ktの突風を伴う
視程10km以上
高度1600ftの千切れ雲あり, 積乱雲.
24日の 21時(UTC)から 25日の 04時(UTC)まで一時的に
視程: 0600m
高度200ftの千切れ雲あり
高度1100ftの千切れ雲あり, 積乱雲.
弱いにわか雨, 霧
25日の 04時(UTC)から 25日の 09時(UTC)まで一時的に
南西の風 16kt
視程: 3100m
高度1100ftの千切れ雲あり, 積乱雲.
弱いにわか雨

TAF: UNNT 242000Z 2421/2521 25003G08MPS 9999 BKN016CB TEMPO 2421/2504 0600 -SHRA FG BKN002 BKN011CB TEMPO 2504/2509 22008MPS 3100 -SHRA BKN011CB

4,000以上の空港の気象観測と天気予報(METAR報とTAF報)

利用可能な観測所は地図上に黄色い丸と赤い丸で示す。

丸の上にカーソルを重ねると観測所名を参照できる。

次にクリックすると気象観測と天気予報を参照できる。

マップの切り替え:黒色「×」印の緑ボタンをクリックして拡大、「-」印の緑ボタンをクリックして縮小、緑色の三角印をクリックして隣りの地図に切り替え


METAR-TAF: